createdAt,value
2018-03-06T16:13:49.221Z,16.2
2018-03-06T16:14:39.269Z,16.1
2018-03-06T16:15:29.313Z,16.1
2018-03-06T16:16:19.396Z,16
2018-03-06T16:17:09.173Z,15.9
2018-03-06T16:17:59.513Z,15.9
2018-03-06T16:18:49.279Z,15.8
2018-03-06T16:19:39.334Z,15.8
2018-03-06T16:20:29.396Z,15.7
2018-03-06T16:21:19.758Z,15.7
2018-03-06T16:22:09.517Z,15.6
2018-03-06T16:22:59.854Z,15.6
2018-03-06T16:23:49.935Z,15.5
2018-03-06T16:24:39.687Z,15.4
2018-03-06T16:25:30.032Z,15.4
2018-03-06T16:26:20.101Z,15.3
2018-03-06T16:27:09.844Z,15.3
2018-03-06T16:27:59.636Z,15.3
2018-03-06T16:28:49.980Z,15.2
2018-03-06T16:29:40.023Z,15.1
2018-03-06T16:30:30.095Z,15
2018-03-06T16:31:20.475Z,15
2018-03-06T16:32:10.497Z,14.9
2018-03-06T16:33:00.567Z,14.9
2018-03-06T16:33:50.586Z,14.8
2018-03-06T16:34:40.815Z,14.8
2018-03-06T16:35:30.733Z,14.7
2018-03-06T16:36:20.762Z,14.6
2018-03-06T16:37:10.839Z,14.6
2018-03-06T16:38:00.609Z,14.6
2018-03-06T16:38:50.384Z,14.5
2018-03-06T16:39:41.003Z,14.4
2018-03-06T16:40:31.056Z,14.4
2018-03-06T16:41:21.119Z,14.3
2018-03-06T16:42:11.179Z,14.3
2018-03-06T16:43:01.254Z,14.2
2018-03-06T16:43:51.277Z,14.1
2018-03-06T16:44:41.354Z,14.1
2018-03-06T16:45:31.123Z,14.1
2018-03-06T16:46:21.461Z,14
2018-03-06T16:47:11.530Z,13.9
2018-03-06T16:48:01.296Z,13.9
2018-03-06T16:48:51.356Z,13.8
2018-03-06T16:49:41.698Z,13.8
2018-03-06T16:50:31.461Z,13.7
2018-03-06T16:51:21.530Z,13.6
2018-03-06T16:52:11.874Z,13.6
2018-03-06T16:53:01.635Z,13.5
2018-03-06T16:53:51.985Z,13.4
2018-03-06T16:54:41.749Z,13.4
2018-03-06T16:55:32.083Z,13.4
2018-03-06T16:56:22.162Z,13.3
2018-03-06T16:57:11.926Z,13.3
2018-03-06T16:58:02.250Z,13.3
2018-03-06T16:58:52.054Z,13.2
2018-03-06T16:59:42.388Z,13.1
2018-03-06T17:00:32.446Z,13.1
2018-03-06T17:01:22.490Z,13
2018-03-06T17:02:12.555Z,12.9
2018-03-06T17:03:02.606Z,12.9
2018-03-06T17:03:52.388Z,12.9
2018-03-06T17:04:42.935Z,12.9
2018-03-06T17:05:32.787Z,12.8
2018-03-06T17:06:22.563Z,12.8
2018-03-06T17:07:12.897Z,12.7
2018-03-06T17:08:02.948Z,12.7
2018-03-06T17:08:53.019Z,12.6
2018-03-06T17:09:42.501Z,12.6
2018-03-06T17:10:33.115Z,12.6
2018-03-06T17:11:23.195Z,12.5
2018-03-06T17:12:13.253Z,12.4
2018-03-06T17:13:03.291Z,12.4
2018-03-06T17:13:53.364Z,12.4
2018-03-06T17:14:43.422Z,12.3
2018-03-06T17:15:33.531Z,12.3
2018-03-06T17:16:23.235Z,12.3
2018-03-06T17:17:13.292Z,12.2
2018-03-06T17:18:03.649Z,12.2
2018-03-06T17:18:53.695Z,12.1
2018-03-06T17:19:43.491Z,12.1
2018-03-06T17:20:33.528Z,12.1
2018-03-06T17:21:23.874Z,12
2018-03-06T17:22:13.666Z,12
2018-03-06T17:23:03.994Z,11.9
2018-03-06T17:23:53.765Z,11.9
2018-03-06T17:24:44.094Z,11.9
2018-03-06T17:25:34.151Z,11.9
2018-03-06T17:26:24.231Z,11.8
2018-03-06T17:27:14.006Z,11.8
2018-03-06T17:28:04.351Z,11.8
2018-03-06T17:28:54.387Z,11.7
2018-03-06T17:29:44.226Z,11.7
2018-03-06T17:30:34.504Z,11.6
2018-03-06T17:31:24.569Z,11.6
2018-03-06T17:32:14.649Z,11.6
2018-03-06T17:33:04.681Z,11.6
2018-03-06T17:33:54.458Z,11.5
2018-03-06T17:34:44.504Z,11.5
2018-03-06T17:35:34.565Z,11.4
2018-03-06T17:36:24.431Z,11.4
2018-03-06T17:37:14.191Z,11.4
2018-03-06T17:38:04.752Z,11.4
2018-03-06T17:38:55.088Z,11.4
2018-03-06T17:39:44.451Z,11.4
2018-03-06T17:40:34.915Z,11.3
2018-03-06T17:41:24.968Z,11.3
2018-03-06T17:42:15.032Z,11.3
2018-03-06T17:43:05.386Z,11.3
2018-03-06T17:43:55.255Z,11.2
2018-03-06T17:44:44.904Z,11.2
2018-03-06T17:45:35.267Z,11.1
2018-03-06T17:46:25.403Z,11.1
2018-03-06T17:47:15.365Z,11.1
2018-03-06T17:48:05.427Z,11.1
2018-03-06T17:48:55.493Z,11.1
2018-03-06T17:49:45.541Z,11
2018-03-06T17:50:35.398Z,11
2018-03-06T17:51:25.672Z,11
2018-03-06T17:52:15.505Z,10.9
2018-03-06T17:53:05.780Z,10.9
2018-03-06T17:53:56.105Z,10.9
2018-03-06T17:54:46.157Z,10.9
2018-03-06T17:55:35.953Z,10.8
2018-03-06T17:56:25.992Z,10.8
2018-03-06T17:57:16.340Z,10.8
2018-03-06T17:58:06.110Z,10.8
2018-03-06T17:58:56.447Z,10.7
2018-03-06T17:59:45.937Z,10.7
2018-03-06T18:00:36.568Z,10.7
2018-03-06T18:01:26.642Z,10.6
2018-03-06T18:02:16.192Z,10.6
2018-03-06T18:03:06.737Z,10.6
2018-03-06T18:03:56.569Z,10.6
2018-03-06T18:04:46.849Z,10.6
2018-03-06T18:05:36.332Z,10.5
2018-03-06T18:06:26.979Z,10.4
2018-03-06T18:07:17.156Z,10.5
2018-03-06T18:08:07.067Z,10.4
2018-03-06T18:08:57.154Z,10.4
2018-03-06T18:09:47.196Z,10.4
2018-03-06T18:10:37.311Z,10.4
2018-03-06T18:11:27.303Z,10.3
2018-03-06T18:12:17.356Z,10.3
2018-03-06T18:13:07.431Z,10.3
2018-03-06T18:13:57.494Z,10.3
2018-03-06T18:14:47.263Z,10.3
2018-03-06T18:15:37.329Z,10.3
2018-03-06T18:16:27.353Z,10.2
2018-03-06T18:17:17.737Z,10.2
2018-03-06T18:18:07.765Z,10.2
2018-03-06T18:18:57.812Z,10.1
2018-03-06T18:19:47.602Z,10.1
2018-03-06T18:20:37.949Z,10.1
2018-03-06T18:21:27.724Z,10.1
2018-03-06T18:22:18.064Z,10
2018-03-06T18:23:08.110Z,10
2018-03-06T18:23:58.164Z,10
2018-03-06T18:24:48.221Z,9.9
2018-03-06T18:25:38.014Z,9.9
2018-03-06T18:26:28.350Z,9.9
2018-03-06T18:27:18.398Z,9.9
2018-03-06T18:28:08.530Z,9.9
2018-03-06T18:28:58.213Z,9.8
2018-03-06T18:29:48.584Z,9.8
2018-03-06T18:30:38.643Z,9.8
2018-03-06T18:31:28.702Z,9.8
2018-03-06T18:32:18.919Z,9.8
2018-03-06T18:33:08.502Z,9.7
2018-03-06T18:33:58.875Z,9.7
2018-03-06T18:34:48.930Z,9.7
2018-03-06T18:35:38.692Z,9.6
2018-03-06T18:36:29.043Z,9.6
2018-03-06T18:37:18.800Z,9.6
2018-03-06T18:38:09.159Z,9.6
2018-03-06T18:38:59.213Z,9.6
2018-03-06T18:39:49.241Z,9.5
2018-03-06T18:40:39.320Z,9.5
2018-03-06T18:41:29.387Z,9.4
2018-03-06T18:42:19.424Z,9.4
2018-03-06T18:43:09.482Z,9.4
2018-03-06T18:43:59.534Z,9.4
2018-03-06T18:44:49.592Z,9.4
2018-03-06T18:45:39.648Z,9.3
2018-03-06T18:46:29.743Z,9.3
2018-03-06T18:47:19.787Z,9.3
2018-03-06T18:48:09.844Z,9.3
2018-03-06T18:48:59.873Z,9.2
2018-03-06T18:49:49.672Z,9.2
2018-03-06T18:50:40.074Z,9.1
2018-03-06T18:51:30.063Z,9.1
2018-03-06T18:52:19.846Z,9.1
2018-03-06T18:53:10.222Z,9
2018-03-06T18:54:00.227Z,9
2018-03-06T18:54:50.299Z,8.9
2018-03-06T18:55:39.781Z,8.9
2018-03-06T18:56:30.483Z,8.9
2018-03-06T18:57:19.876Z,8.9
2018-03-06T18:58:10.535Z,8.9
2018-03-06T18:59:00.558Z,8.8
2018-03-06T18:59:50.641Z,8.8
2018-03-06T19:00:40.686Z,8.8
2018-03-06T19:01:30.455Z,8.7
2018-03-06T19:02:20.523Z,8.7
2018-03-06T19:03:10.578Z,8.6
2018-03-06T19:04:00.928Z,8.6
2018-03-06T19:04:50.975Z,8.6
2018-03-06T19:05:41.057Z,8.6
2018-03-06T19:06:31.078Z,8.5
2018-03-06T19:07:21.162Z,8.5
2018-03-06T19:08:11.223Z,8.4
2018-03-06T19:09:01.304Z,8.4
2018-03-06T19:09:51.420Z,8.4
2018-03-06T19:10:41.090Z,8.4
2018-03-06T19:11:31.432Z,8.3
2018-03-06T19:12:21.490Z,8.3
2018-03-06T19:13:11.556Z,8.3
2018-03-06T19:14:01.315Z,8.3
2018-03-06T19:14:51.385Z,8.2
2018-03-06T19:15:41.711Z,8.2
2018-03-06T19:16:31.781Z,8.2
2018-03-06T19:17:21.838Z,8.1
2018-03-06T19:18:11.612Z,8.1
2018-03-06T19:19:01.987Z,8.1
2018-03-06T19:19:51.717Z,8.1
2018-03-06T19:20:42.064Z,8
2018-03-06T19:21:31.560Z,8
2018-03-06T19:22:22.199Z,8
2018-03-06T19:23:12.246Z,7.9
2018-03-06T19:24:02.016Z,7.9
2018-03-06T19:24:52.367Z,7.9
2018-03-06T19:25:42.401Z,7.8
2018-03-06T19:26:32.486Z,7.8
2018-03-06T19:27:22.534Z,7.8
2018-03-06T19:28:12.601Z,7.8
2018-03-06T19:29:02.661Z,7.8
2018-03-06T19:29:52.732Z,7.7
2018-03-06T19:30:42.770Z,7.7
2018-03-06T19:31:32.523Z,7.7
2018-03-06T19:32:22.858Z,7.6
2018-03-06T19:33:12.931Z,7.6
2018-03-06T19:34:02.711Z,7.6
2018-03-06T19:34:53.041Z,7.6
2018-03-06T19:35:43.126Z,7.5
2018-03-06T19:36:33.141Z,7.5
2018-03-06T19:37:23.234Z,7.4
2018-03-06T19:38:13.273Z,7.4
2018-03-06T19:39:03.315Z,7.4
2018-03-06T19:39:53.385Z,7.4
2018-03-06T19:40:43.443Z,7.4
2018-03-06T19:41:33.524Z,7.3
2018-03-06T19:42:23.577Z,7.3
2018-03-06T19:43:13.615Z,7.3
2018-03-06T19:44:03.399Z,7.3
2018-03-06T19:44:53.460Z,7.2
2018-03-06T19:45:43.528Z,7.2
2018-03-06T19:46:33.573Z,7.1
2018-03-06T19:47:23.612Z,7.1
2018-03-06T19:48:13.963Z,7.1
2018-03-06T19:49:04.015Z,7.1
2018-03-06T19:49:54.068Z,7
2018-03-06T19:50:43.570Z,7
2018-03-06T19:51:34.207Z,7
2018-03-06T19:52:23.955Z,6.9
2018-03-06T19:53:14.315Z,6.9
2018-03-06T19:54:04.372Z,6.9
2018-03-06T19:54:54.434Z,6.9
2018-03-06T19:55:44.495Z,6.9
2018-03-06T19:56:34.557Z,6.9
2018-03-06T19:57:24.027Z,6.8
2018-03-06T19:58:14.665Z,6.8
2018-03-06T19:59:04.710Z,6.8
2018-03-06T19:59:54.197Z,6.8
2018-03-06T20:00:44.874Z,6.8
2018-03-06T20:01:34.920Z,6.7
2018-03-06T20:02:24.938Z,6.7
2018-03-06T20:03:15.023Z,6.7
2018-03-06T20:04:05.074Z,6.6
2018-03-06T20:04:54.540Z,6.6
2018-03-06T20:05:44.903Z,6.6
2018-03-06T20:06:35.234Z,6.6
2018-03-06T20:07:25.377Z,6.6
2018-03-06T20:08:15.067Z,6.6
2018-03-06T20:09:05.402Z,6.5
2018-03-06T20:09:55.192Z,6.5
2018-03-06T20:10:45.510Z,6.5
2018-03-06T20:11:35.595Z,6.4
2018-03-06T20:12:25.374Z,6.4
2018-03-06T20:13:15.660Z,6.4
2018-03-06T20:14:05.472Z,6.4
2018-03-06T20:14:55.804Z,6.4
2018-03-06T20:15:45.277Z,6.4
2018-03-06T20:16:35.943Z,6.3
2018-03-06T20:17:25.405Z,6.3
2018-03-06T20:18:15.761Z,6.3
2018-03-06T20:19:06.081Z,6.3
2018-03-06T20:19:56.150Z,6.3
2018-03-06T20:20:45.646Z,6.3
2018-03-06T20:21:36.326Z,6.2
2018-03-06T20:22:26.312Z,6.2
2018-03-06T20:23:16.373Z,6.1
2018-03-06T20:24:06.427Z,6.1
2018-03-06T20:24:56.507Z,6.1
2018-03-06T20:25:46.565Z,6.1
2018-03-06T20:26:36.612Z,6.1
2018-03-06T20:27:26.383Z,6.1
2018-03-06T20:28:16.727Z,6.1
2018-03-06T20:29:06.791Z,6
2018-03-06T20:29:56.831Z,6
2018-03-06T20:30:46.618Z,6
2018-03-06T20:31:36.926Z,6
2018-03-06T20:32:27.036Z,5.9
2018-03-06T20:33:17.068Z,5.9
2018-03-06T20:34:06.845Z,5.9
2018-03-06T20:34:56.872Z,5.9
2018-03-06T20:35:46.961Z,5.9
2018-03-06T20:36:37.321Z,5.8
2018-03-06T20:37:27.348Z,5.8
2018-03-06T20:38:17.418Z,5.8
2018-03-06T20:39:06.923Z,5.8
2018-03-06T20:39:57.517Z,5.8
2018-03-06T20:40:47.272Z,5.8
2018-03-06T20:41:37.642Z,5.8
2018-03-06T20:42:27.721Z,5.7
2018-03-06T20:43:17.760Z,5.7
2018-03-06T20:44:07.823Z,5.7
2018-03-06T20:44:57.592Z,5.7
2018-03-06T20:45:47.642Z,5.6
2018-03-06T20:46:37.692Z,5.6
2018-03-06T20:47:28.050Z,5.6
2018-03-06T20:48:18.097Z,5.6
2018-03-06T20:49:08.174Z,5.6
2018-03-06T20:49:58.226Z,5.6
2018-03-06T20:50:47.997Z,5.6
2018-03-06T20:51:38.344Z,5.6
2018-03-06T20:52:28.181Z,5.5
2018-03-06T20:53:18.183Z,5.5
2018-03-06T20:54:08.210Z,5.5
2018-03-06T20:54:57.975Z,5.4
2018-03-06T20:55:48.229Z,5.4
2018-03-06T20:56:38.397Z,5.4
2018-03-06T20:57:28.740Z,5.4
2018-03-06T20:58:18.787Z,5.4
2018-03-06T20:59:08.554Z,5.4
2018-03-06T20:59:58.893Z,5.4
2018-03-06T21:00:48.671Z,5.4
2018-03-06T21:01:38.734Z,5.3
2018-03-06T21:02:28.807Z,5.3
2018-03-06T21:03:19.124Z,5.3
2018-03-06T21:04:08.894Z,5.3
2018-03-06T21:04:59.253Z,5.3
2018-03-06T21:05:49.036Z,5.3
2018-03-06T21:06:39.366Z,5.3
2018-03-06T21:07:29.419Z,5.2
2018-03-06T21:08:19.210Z,5.2
2018-03-06T21:09:09.069Z,5.2
2018-03-06T21:09:59.300Z,5.2
2018-03-06T21:10:49.655Z,5.2
2018-03-06T21:11:39.554Z,5.1
2018-03-06T21:12:29.475Z,5.1
2018-03-06T21:13:19.529Z,5.1
2018-03-06T21:14:09.575Z,5.1
2018-03-06T21:14:59.641Z,5.1
2018-03-06T21:15:50.008Z,5.1
2018-03-06T21:16:39.863Z,5.1
2018-03-06T21:17:29.677Z,5.1
2018-03-06T21:18:19.673Z,5
2018-03-06T21:19:10.041Z,5
2018-03-06T21:20:00.281Z,5
2018-03-06T21:20:50.045Z,5
2018-03-06T21:21:40.383Z,4.9
2018-03-06T21:22:30.155Z,4.9
2018-03-06T21:23:20.218Z,4.9
2018-03-06T21:24:10.571Z,4.9
2018-03-06T21:25:00.772Z,4.9
2018-03-06T21:25:50.391Z,4.9
2018-03-06T21:26:40.743Z,4.9
2018-03-06T21:27:30.219Z,4.9
2018-03-06T21:28:20.280Z,4.9
2018-03-06T21:29:10.891Z,4.8
2018-03-06T21:30:00.379Z,4.8
2018-03-06T21:30:51.061Z,4.8
2018-03-06T21:31:41.069Z,4.8
2018-03-06T21:32:30.844Z,4.8
2018-03-06T21:33:20.614Z,4.8
2018-03-06T21:34:11.262Z,4.8
2018-03-06T21:35:01.018Z,4.8
2018-03-06T21:35:51.370Z,4.8
2018-03-06T21:36:41.678Z,4.7
2018-03-06T21:37:31.319Z,4.8
2018-03-06T21:38:21.537Z,4.7
2018-03-06T21:39:11.597Z,4.7
2018-03-06T21:40:01.070Z,4.7
2018-03-06T21:40:51.719Z,4.6
2018-03-06T21:41:41.751Z,4.6
2018-03-06T21:42:31.535Z,4.6
2018-03-06T21:43:21.581Z,4.6
2018-03-06T21:44:11.969Z,4.6
2018-03-06T21:45:01.992Z,4.6
2018-03-06T21:45:52.051Z,4.6
2018-03-06T21:46:42.137Z,4.5
2018-03-06T21:47:32.172Z,4.5
2018-03-06T21:48:22.218Z,4.5
2018-03-06T21:49:12.274Z,4.5
2018-03-06T21:50:02.361Z,4.4
2018-03-06T21:50:52.414Z,4.5
2018-03-06T21:51:42.437Z,4.4
2018-03-06T21:52:32.206Z,4.4
2018-03-06T21:53:22.567Z,4.4
2018-03-06T21:54:12.615Z,4.4
2018-03-06T21:55:02.694Z,4.4
2018-03-06T21:55:52.741Z,4.4
2018-03-06T21:56:42.782Z,4.4
2018-03-06T21:57:32.843Z,4.4
2018-03-06T21:58:22.898Z,4.4
2018-03-06T21:59:12.966Z,4.3
2018-03-06T22:00:03.021Z,4.3
2018-03-06T22:00:52.789Z,4.3
2018-03-06T22:01:42.841Z,4.3
2018-03-06T22:02:33.199Z,4.3
2018-03-06T22:03:23.243Z,4.3
2018-03-06T22:04:13.300Z,4.3
2018-03-06T22:05:03.365Z,4.3
2018-03-06T22:05:53.471Z,4.3
2018-03-06T22:06:43.483Z,4.3
2018-03-06T22:07:33.275Z,4.3
2018-03-06T22:08:23.593Z,4.3
2018-03-06T22:09:13.638Z,4.3
2018-03-06T22:10:03.708Z,4.3
2018-03-06T22:10:53.489Z,4.3
2018-03-06T22:11:43.823Z,4.3
2018-03-06T22:12:33.904Z,4.3
2018-03-06T22:13:23.660Z,4.3
2018-03-06T22:14:14.018Z,4.3
2018-03-06T22:15:04.074Z,4.3
2018-03-06T22:15:53.932Z,4.3
2018-03-06T22:16:43.872Z,4.3
2018-03-06T22:17:34.228Z,4.3
2018-03-06T22:18:24.284Z,4.3
2018-03-06T22:19:14.059Z,4.3
2018-03-06T22:20:04.117Z,4.3
2018-03-06T22:20:54.454Z,4.3
2018-03-06T22:21:44.507Z,4.3
2018-03-06T22:22:34.572Z,4.3
2018-03-06T22:23:24.350Z,4.3
2018-03-06T22:24:14.400Z,4.3
2018-03-06T22:25:04.737Z,4.3
2018-03-06T22:25:54.813Z,4.3
2018-03-06T22:26:44.852Z,4.3
2018-03-06T22:27:34.622Z,4.3
2018-03-06T22:28:24.972Z,4.3
2018-03-06T22:29:15.025Z,4.3
2018-03-06T22:30:05.090Z,4.3
2018-03-06T22:30:54.847Z,4.3
2018-03-06T22:31:45.225Z,4.3
2018-03-06T22:32:35.274Z,4.3
2018-03-06T22:33:25.307Z,4.3
2018-03-06T22:34:15.096Z,4.3
2018-03-06T22:35:05.149Z,4.3
2018-03-06T22:35:55.489Z,4.3
2018-03-06T22:36:45.537Z,4.3
2018-03-06T22:37:35.630Z,4.4
2018-03-06T22:38:25.776Z,4.3
2018-03-06T22:39:15.713Z,4.3
2018-03-06T22:40:05.777Z,4.4
2018-03-06T22:40:55.269Z,4.3
2018-03-06T22:41:45.602Z,4.4
2018-03-06T22:42:35.941Z,4.4
2018-03-06T22:43:25.717Z,4.4
2018-03-06T22:44:16.061Z,4.4
2018-03-06T22:45:06.163Z,4.4
2018-03-06T22:45:56.188Z,4.3
2018-03-06T22:46:46.231Z,4.4
2018-03-06T22:47:36.285Z,4.4
2018-03-06T22:48:26.346Z,4.4
2018-03-06T22:49:16.428Z,4.4
2018-03-06T22:50:06.464Z,4.4
2018-03-06T22:50:56.523Z,4.4
2018-03-06T22:51:46.626Z,4.4
2018-03-06T22:52:36.625Z,4.4
2018-03-06T22:53:26.688Z,4.4
2018-03-06T22:54:16.753Z,4.4
2018-03-06T22:55:06.526Z,4.4
2018-03-06T22:55:56.580Z,4.4
2018-03-06T22:56:46.645Z,4.4
2018-03-06T22:57:36.979Z,4.4
2018-03-06T22:58:26.752Z,4.4
2018-03-06T22:59:17.112Z,4.4
2018-03-06T23:00:07.182Z,4.4
2018-03-06T23:00:57.203Z,4.4
2018-03-06T23:01:47.255Z,4.4
2018-03-06T23:02:37.318Z,4.4
2018-03-06T23:03:27.380Z,4.4
2018-03-06T23:04:17.424Z,4.4
2018-03-06T23:05:07.205Z,4.4
2018-03-06T23:05:57.275Z,4.4
2018-03-06T23:06:47.607Z,4.4
2018-03-06T23:07:37.665Z,4.4
2018-03-06T23:08:27.729Z,4.5
2018-03-06T23:09:17.516Z,4.5
2018-03-06T23:10:08.059Z,4.4
2018-03-06T23:10:57.620Z,4.5
2018-03-06T23:11:47.954Z,4.5
2018-03-06T23:12:37.735Z,4.5
2018-03-06T23:13:28.070Z,4.5
2018-03-06T23:14:18.120Z,4.5
2018-03-06T23:15:08.186Z,4.5
2018-03-06T23:15:58.237Z,4.5
2018-03-06T23:16:47.735Z,4.5
2018-03-06T23:17:38.069Z,4.6
2018-03-06T23:18:28.436Z,4.6
2018-03-06T23:19:18.476Z,4.6
2018-03-06T23:20:08.524Z,4.6
2018-03-06T23:20:58.604Z,4.6
2018-03-06T23:21:48.397Z,4.6
2018-03-06T23:22:38.703Z,4.5
2018-03-06T23:23:28.466Z,4.6
2018-03-06T23:24:18.808Z,4.6
2018-03-06T23:25:08.879Z,4.6
2018-03-06T23:25:58.350Z,4.6
2018-03-06T23:26:49.006Z,4.6
2018-03-06T23:27:38.764Z,4.6
2018-03-06T23:28:29.114Z,4.6
2018-03-06T23:29:19.153Z,4.6
2018-03-06T23:30:09.213Z,4.6
2018-03-06T23:30:58.709Z,4.6
2018-03-06T23:31:49.320Z,4.6
2018-03-06T23:32:39.400Z,4.6
2018-03-06T23:33:29.163Z,4.6
2018-03-06T23:34:19.241Z,4.6
2018-03-06T23:35:09.570Z,4.6
2018-03-06T23:35:59.610Z,4.6
2018-03-06T23:36:49.402Z,4.6
2018-03-06T23:37:39.768Z,4.6
2018-03-06T23:38:29.801Z,4.6
2018-03-06T23:39:19.843Z,4.6
2018-03-06T23:40:09.900Z,4.6
2018-03-06T23:40:59.678Z,4.6
2018-03-06T23:41:49.732Z,4.6
2018-03-06T23:42:40.102Z,4.6
2018-03-06T23:43:30.132Z,4.6
2018-03-06T23:44:20.204Z,4.6
2018-03-06T23:45:10.239Z,4.6
2018-03-06T23:46:00.018Z,4.6
2018-03-06T23:46:50.075Z,4.7
2018-03-06T23:47:40.428Z,4.7
2018-03-06T23:48:30.467Z,4.7
2018-03-06T23:49:20.523Z,4.7
2018-03-06T23:50:10.600Z,4.7
2018-03-06T23:51:00.660Z,4.7
2018-03-06T23:51:50.423Z,4.7
2018-03-06T23:52:40.490Z,4.7
2018-03-06T23:53:30.831Z,4.7
2018-03-06T23:54:20.885Z,4.7
2018-03-06T23:55:10.656Z,4.7
2018-03-06T23:56:00.439Z,4.7
2018-03-06T23:56:51.053Z,4.8
2018-03-06T23:57:41.111Z,4.7
2018-03-06T23:58:30.886Z,4.7
2018-03-06T23:59:21.218Z,4.8
